Time;durP1;ratioP1;P1;durP2;ratioP2;P2;SDS_P1;SDS_P2;PMS_P1;PMS_P2;Temp;Humidity;BMP_temperature;BMP_pressure;BME280_temperature;BME280_humidity;BME280_pressure;Samples;Min_cycle;Max_cycle;Signal;HPM_P1;HPM_P2
2021/08/23 00:00:10;;;;;;;18.45;10.15;;;17.80;71.30;;;;;;5050607;28;20064;-76
2021/08/23 00:02:36;;;;;;;14.77;9.30;;;17.80;71.30;;;;;;5050860;28;20380;-77
2021/08/23 00:05:03;;;;;;;15.18;8.60;;;17.80;71.20;;;;;;5050865;28;20032;-78
2021/08/23 00:07:29;;;;;;;18.48;9.80;;;17.80;71.10;;;;;;5050533;28;20028;-77
2021/08/23 00:09:55;;;;;;;24.98;12.27;;;17.80;71.10;;;;;;5050606;28;20375;-77
2021/08/23 00:12:21;;;;;;;20.92;11.75;;;17.80;71.30;;;;;;5050649;28;20075;-78
2021/08/23 00:14:47;;;;;;;22.08;13.73;;;17.70;71.50;;;;;;5050387;28;20124;-79
2021/08/23 00:17:13;;;;;;;17.17;11.25;;;17.70;71.60;;;;;;5050545;28;20033;-80
2021/08/23 00:19:39;;;;;;;18.83;11.32;;;17.70;71.60;;;;;;5048886;28;20035;-79
2021/08/23 00:22:20;;;;;;;16.40;11.45;;;17.60;71.50;;;;;;5050199;28;20021;-78
2021/08/23 00:24:47;;;;;;;17.10;11.55;;;17.60;71.50;;;;;;5048322;28;20028;-78
2021/08/23 00:27:13;;;;;;;23.15;12.85;;;17.60;71.50;;;;;;5050299;28;20025;-77
2021/08/23 00:29:39;;;;;;;20.25;12.98;;;17.60;71.70;;;;;;5050229;28;20028;-77
2021/08/23 00:32:05;;;;;;;20.83;12.27;;;17.50;71.90;;;;;;5050436;28;20023;-76
2021/08/23 00:34:30;;;;;;;19.33;11.07;;;17.50;71.90;;;;;;5050483;28;20021;-76
2021/08/23 00:36:56;;;;;;;18.25;11.48;;;17.50;72.00;;;;;;5049217;28;20021;-76
2021/08/23 00:39:22;;;;;;;26.35;13.88;;;17.50;71.90;;;;;;5050434;28;20071;-77
2021/08/23 00:41:47;;;;;;;28.98;13.25;;;17.50;72.00;;;;;;5050228;28;20067;-76
2021/08/23 00:44:13;;;;;;;16.45;10.98;;;17.50;71.90;;;;;;5050384;28;20036;-76
2021/08/23 00:46:39;;;;;;;17.63;11.85;;;17.50;72.10;;;;;;5050373;28;20027;-76
2021/08/23 00:49:05;;;;;;;20.40;12.65;;;17.50;72.30;;;;;;5050143;28;20029;-76
2021/08/23 00:51:31;;;;;;;16.73;11.38;;;17.50;72.30;;;;;;5050411;28;20359;-76
2021/08/23 00:53:57;;;;;;;16.25;11.02;;;17.50;72.30;;;;;;5051344;28;20376;-76
2021/08/23 00:56:23;;;;;;;19.75;10.45;;;17.50;72.40;;;;;;5051133;28;20036;-76
2021/08/23 00:58:53;;;;;;;13.70;9.50;;;17.50;72.30;;;;;;5051489;28;20040;-76
2021/08/23 01:01:25;;;;;;;16.40;10.27;;;17.50;72.50;;;;;;5051205;28;20024;-75
2021/08/23 01:03:58;;;;;;;20.48;11.32;;;17.50;72.50;;;;;;5054588;28;20491;-75
2021/08/23 01:06:25;;;;;;;28.13;12.55;;;17.50;72.40;;;;;;5054295;28;20113;-77
2021/08/23 01:08:57;;;;;;;20.30;11.30;;;17.40;72.40;;;;;;5053823;28;20029;-77
2021/08/23 01:11:23;;;;;;;22.15;11.75;;;17.40;72.40;;;;;;5053878;28;20033;-77
2021/08/23 01:13:50;;;;;;;16.95;9.05;;;17.40;72.50;;;;;;5053878;28;20029;-76
2021/08/23 01:16:16;;;;;;;15.98;8.82;;;17.40;72.50;;;;;;5053846;28;20028;-76
2021/08/23 01:18:43;;;;;;;14.70;10.52;;;17.30;72.40;;;;;;5053966;28;20029;-77
2021/08/23 01:21:10;;;;;;;15.32;10.73;;;17.30;72.00;;;;;;5054271;28;20024;-76
2021/08/23 01:23:37;;;;;;;15.85;11.02;;;17.30;71.80;;;;;;5054638;28;20079;-76
2021/08/23 01:26:04;;;;;;;18.52;10.90;;;17.30;71.70;;;;;;5054840;28;20096;-76
2021/08/23 01:29:01;;;;;;;16.63;11.27;;;17.30;71.60;;;;;;5054568;28;20387;-77
2021/08/23 01:31:49;;;;;;;20.52;12.13;;;17.20;71.40;;;;;;5054679;28;20013;-76
2021/08/23 01:34:15;;;;;;;17.98;10.52;;;17.20;71.40;;;;;;5054816;28;20021;-77
2021/08/23 01:36:41;;;;;;;17.67;10.68;;;17.20;71.50;;;;;;5054370;28;20025;-76
2021/08/23 01:39:07;;;;;;;14.15;9.73;;;17.10;71.60;;;;;;5054389;28;20092;-77
2021/08/23 01:41:32;;;;;;;13.68;10.13;;;17.10;71.70;;;;;;5054231;28;20100;-77
2021/08/23 01:43:58;;;;;;;21.15;14.63;;;17.10;71.90;;;;;;5054316;28;20051;-77
2021/08/23 01:46:29;;;;;;;24.63;16.98;;;17.00;72.10;;;;;;5054429;28;20025;-77
2021/08/23 01:48:56;;;;;;;18.17;12.30;;;17.10;72.40;;;;;;5054544;28;20059;-77
2021/08/23 01:51:21;;;;;;;20.13;12.35;;;17.00;72.40;;;;;;5054218;28;20013;-76
2021/08/23 01:53:47;;;;;;;20.50;12.27;;;17.00;72.40;;;;;;5052962;28;20029;-76
2021/08/23 01:56:13;;;;;;;14.07;10.10;;;17.00;72.40;;;;;;5054114;28;20112;-77
2021/08/23 01:58:38;;;;;;;43.30;30.30;;;16.90;72.50;;;;;;5054220;28;20085;-77
2021/08/23 02:01:04;;;;;;;35.13;24.70;;;16.90;72.60;;;;;;5053976;28;20108;-77
2021/08/23 02:03:30;;;;;;;19.67;12.68;;;16.80;72.70;;;;;;5053991;28;20430;-77
2021/08/23 02:05:55;;;;;;;16.85;11.70;;;16.80;72.90;;;;;;5053779;28;20032;-77
2021/08/23 02:08:21;;;;;;;18.95;12.73;;;16.80;73.10;;;;;;5053740;28;20506;-77
2021/08/23 02:10:47;;;;;;;18.33;11.13;;;16.80;73.30;;;;;;5053985;28;20028;-77
2021/08/23 02:13:12;;;;;;;15.60;10.48;;;16.70;73.30;;;;;;5052515;28;20056;-77
2021/08/23 02:15:38;;;;;;;21.40;14.60;;;16.70;73.40;;;;;;5053907;28;20104;-77
2021/08/23 02:18:04;;;;;;;16.52;10.90;;;16.70;73.70;;;;;;5053582;28;20029;-77
2021/08/23 02:20:30;;;;;;;15.52;11.02;;;16.60;73.80;;;;;;5053848;28;20107;-77
2021/08/23 02:22:56;;;;;;;18.40;11.10;;;16.60;73.90;;;;;;5053611;28;20519;-77
2021/08/23 02:25:22;;;;;;;15.10;10.40;;;16.60;74.10;;;;;;5053812;28;20111;-77
2021/08/23 02:27:52;;;;;;;14.02;9.65;;;16.60;74.20;;;;;;5053673;28;20140;-77
2021/08/23 02:30:18;;;;;;;14.52;10.50;;;16.60;74.30;;;;;;5053439;28;20045;-77
2021/08/23 02:32:44;;;;;;;15.70;10.93;;;16.60;74.40;;;;;;5053531;28;20021;-77
2021/08/23 02:35:10;;;;;;;15.88;11.77;;;16.60;74.50;;;;;;5053724;28;20033;-78
2021/08/23 02:37:36;;;;;;;17.33;11.95;;;16.60;74.50;;;;;;5053876;28;20519;-78
2021/08/23 02:40:03;;;;;;;20.48;12.93;;;16.60;74.70;;;;;;5053522;28;20032;-78
2021/08/23 02:42:28;;;;;;;19.23;12.52;;;16.50;74.80;;;;;;5053267;28;20024;-77
2021/08/23 02:44:54;;;;;;;19.00;12.55;;;16.50;75.00;;;;;;5053125;28;20021;-77
2021/08/23 02:47:20;;;;;;;18.48;12.57;;;16.50;75.10;;;;;;5053129;28;20521;-77
2021/08/23 02:49:45;;;;;;;21.02;12.65;;;16.40;75.20;;;;;;5053009;28;20375;-78
2021/08/23 02:52:11;;;;;;;17.83;11.93;;;16.40;75.40;;;;;;5053126;28;20025;-77
2021/08/23 02:54:37;;;;;;;20.63;12.63;;;16.40;75.50;;;;;;5052692;28;20036;-77
2021/08/23 02:57:03;;;;;;;47.95;31.02;;;16.40;75.50;;;;;;5052767;28;20053;-78
2021/08/23 02:59:28;;;;;;;37.17;22.42;;;16.40;75.60;;;;;;5052842;28;20025;-77
2021/08/23 03:01:54;;;;;;;20.98;13.77;;;16.40;75.60;;;;;;5052910;28;20389;-77
2021/08/23 03:04:20;;;;;;;19.70;13.18;;;16.40;75.70;;;;;;5052904;28;20037;-77
2021/08/23 03:06:45;;;;;;;22.40;13.30;;;16.40;75.90;;;;;;5052875;28;20514;-76
2021/08/23 03:09:11;;;;;;;18.30;13.30;;;16.60;76.00;;;;;;5051439;28;20074;-77
2021/08/23 03:11:37;;;;;;;19.67;13.13;;;16.80;75.80;;;;;;5052784;28;20420;-76
2021/08/23 03:14:03;;;;;;;23.10;13.85;;;17.00;75.30;;;;;;5052672;28;20033;-77
2021/08/23 03:16:29;;;;;;;19.90;12.70;;;17.30;74.50;;;;;;5052709;28;20017;-77
2021/08/23 03:18:55;;;;;;;18.73;13.27;;;17.70;73.70;;;;;;5052758;28;20048;-78
2021/08/23 03:21:20;;;;;;;19.17;13.85;;;18.00;72.70;;;;;;5052715;28;20120;-76
2021/08/23 03:23:46;;;;;;;21.85;13.70;;;18.50;71.80;;;;;;5052510;28;20024;-77
2021/08/23 03:26:12;;;;;;;22.05;14.90;;;18.90;70.70;;;;;;5051688;28;20131;-78
2021/08/23 03:28:38;;;;;;;22.55;13.73;;;19.30;69.60;;;;;;5052167;28;20176;-76
2021/08/23 03:31:04;;;;;;;21.55;14.07;;;19.80;68.30;;;;;;5052282;28;20522;-77
2021/08/23 03:33:30;;;;;;;23.58;13.93;;;20.30;67.20;;;;;;5052246;28;20036;-76
2021/08/23 03:35:56;;;;;;;23.55;14.40;;;20.70;66.00;;;;;;5052074;28;20025;-77
2021/08/23 03:38:22;;;;;;;19.67;14.10;;;21.20;64.90;;;;;;5051973;28;20092;-76
2021/08/23 03:40:47;;;;;;;28.35;14.88;;;21.60;63.70;;;;;;5052034;28;20075;-77
2021/08/23 03:43:13;;;;;;;25.00;14.07;;;22.10;62.60;;;;;;5051884;28;20467;-77
2021/08/23 03:45:39;;;;;;;21.05;13.98;;;22.50;61.40;;;;;;5052105;28;20055;-77
2021/08/23 03:48:05;;;;;;;23.33;14.57;;;23.00;60.30;;;;;;5051833;28;20040;-77
2021/08/23 03:50:30;;;;;;;22.27;14.20;;;23.50;59.20;;;;;;5051972;28;20028;-77
2021/08/23 03:52:56;;;;;;;19.02;13.32;;;23.90;58.00;;;;;;5051931;28;20024;-76
2021/08/23 03:55:22;;;;;;;20.75;13.60;;;24.40;57.00;;;;;;5051910;28;20032;-76
2021/08/23 03:57:48;;;;;;;22.50;14.60;;;24.90;55.90;;;;;;5051402;28;20073;-76
2021/08/23 04:00:14;;;;;;;22.88;13.70;;;25.40;54.60;;;;;;5052081;28;20028;-76
2021/08/23 04:02:40;;;;;;;23.95;14.40;;;25.80;53.70;;;;;;5051850;28;20456;-76
2021/08/23 04:05:06;;;;;;;23.25;14.30;;;26.30;52.90;;;;;;5051847;28;20118;-76
2021/08/23 04:07:32;;;;;;;20.60;13.38;;;26.80;52.00;;;;;;5051797;28;20506;-77
2021/08/23 04:09:58;;;;;;;28.33;19.40;;;27.30;51.10;;;;;;5051279;28;20025;-78
2021/08/23 04:12:24;;;;;;;33.05;21.00;;;27.80;50.10;;;;;;5050260;28;20051;-77
2021/08/23 04:14:50;;;;;;;24.30;16.30;;;28.20;49.30;;;;;;5051657;28;20033;-77
2021/08/23 04:17:16;;;;;;;25.75;15.88;;;28.60;48.50;;;;;;5051857;28;20052;-77
2021/08/23 04:19:41;;;;;;;23.67;14.13;;;29.00;47.70;;;;;;5051617;28;20033;-77
2021/08/23 04:22:10;;;;;;;22.80;13.68;;;29.40;47.10;;;;;;5050087;28;20025;-77
2021/08/23 04:24:36;;;;;;;21.63;12.95;;;29.80;46.40;;;;;;5051393;28;20418;-77
2021/08/23 04:27:02;;;;;;;21.35;13.73;;;30.20;45.90;;;;;;5051341;28;20033;-77
2021/08/23 04:29:27;;;;;;;24.38;12.65;;;30.60;45.30;;;;;;5051557;28;20024;-78
2021/08/23 04:31:53;;;;;;;19.63;13.00;;;30.90;44.70;;;;;;5051610;28;20029;-77
2021/08/23 04:34:19;;;;;;;18.98;12.32;;;31.10;44.10;;;;;;5051276;28;20444;-78
2021/08/23 04:36:44;;;;;;;19.98;11.35;;;31.20;43.70;;;;;;5053058;28;20103;-76
2021/08/23 04:39:10;;;;;;;24.65;11.80;;;31.20;43.40;;;;;;5055200;28;20086;-76
2021/08/23 04:41:38;;;;;;;16.00;11.48;;;31.10;43.10;;;;;;5055188;28;20147;-77
2021/08/23 04:44:04;;;;;;;21.45;12.30;;;31.10;43.10;;;;;;5056429;28;20029;-78
2021/08/23 04:46:30;;;;;;;18.95;12.02;;;31.40;43.20;;;;;;5055197;28;20478;-77
2021/08/23 04:48:56;;;;;;;19.33;11.60;;;31.80;42.70;;;;;;5055127;28;20103;-77
2021/08/23 04:51:22;;;;;;;18.88;11.60;;;32.30;42.30;;;;;;5054826;28;20028;-77
2021/08/23 04:53:47;;;;;;;23.27;11.75;;;32.80;41.90;;;;;;5054904;28;20504;-77
2021/08/23 04:56:14;;;;;;;19.42;10.98;;;33.50;41.40;;;;;;5054822;28;20037;-77
2021/08/23 04:58:40;;;;;;;16.48;11.02;;;34.20;40.70;;;;;;5054914;28;20045;-77
2021/08/23 05:01:05;;;;;;;16.70;9.95;;;34.80;40.10;;;;;;5055001;28;20036;-76
2021/08/23 05:03:31;;;;;;;20.02;11.68;;;35.30;39.40;;;;;;5054451;28;20359;-77
2021/08/23 05:05:57;;;;;;;12.52;8.25;;;35.80;38.80;;;;;;5053630;28;20074;-76
2021/08/23 05:08:22;;;;;;;12.20;8.07;;;36.10;38.10;;;;;;5054831;28;20425;-77
2021/08/23 05:10:48;;;;;;;15.60;9.23;;;36.20;37.50;;;;;;5054639;28;20028;-77
2021/08/23 05:13:14;;;;;;;17.95;9.70;;;36.20;37.40;;;;;;5054402;28;20025;-77
2021/08/23 05:15:40;;;;;;;16.52;9.90;;;36.20;37.50;;;;;;5054054;28;20032;-79
2021/08/23 05:18:06;;;;;;;10.40;7.93;;;36.40;37.50;;;;;;5054190;28;20082;-76
2021/08/23 05:20:31;;;;;;;14.90;8.77;;;36.70;37.00;;;;;;5054313;28;20475;-76
2021/08/23 05:22:57;;;;;;;13.55;7.90;;;37.10;36.80;;;;;;5050807;28;20121;-75
2021/08/23 05:25:23;;;;;;;14.13;8.43;;;37.50;36.40;;;;;;5053741;28;20453;-76
2021/08/23 05:27:48;;;;;;;13.48;7.75;;;37.90;36.10;;;;;;5047140;28;20055;-76
2021/08/23 05:30:14;;;;;;;13.25;7.90;;;38.40;35.90;;;;;;5051281;28;20025;-77
2021/08/23 05:32:40;;;;;;;15.48;9.00;;;38.90;35.60;;;;;;5052974;28;20021;-77
2021/08/23 05:35:07;;;;;;;14.10;7.68;;;39.50;35.40;;;;;;5052833;28;20028;-76
2021/08/23 05:37:32;;;;;;;14.07;7.63;;;39.90;34.70;;;;;;5053152;28;20036;-77
2021/08/23 05:39:59;;;;;;;10.38;7.40;;;40.30;34.40;;;;;;5053876;28;20021;-77
2021/08/23 05:42:24;;;;;;;12.27;6.82;;;40.60;34.00;;;;;;5054101;28;20013;-77
2021/08/23 05:44:54;;;;;;;12.23;6.50;;;40.90;33.70;;;;;;5051165;28;20024;-78
2021/08/23 05:47:22;;;;;;;8.98;6.90;;;41.20;34.10;;;;;;5052011;28;20029;-79
2021/08/23 05:49:48;;;;;;;11.00;7.45;;;41.50;33.20;;;;;;5053028;28;20349;-77
2021/08/23 05:52:14;;;;;;;10.27;5.90;;;41.60;33.00;;;;;;5053355;28;20021;-78
2021/08/23 05:54:40;;;;;;;10.13;7.07;;;41.80;32.90;;;;;;5047946;28;20013;-76
2021/08/23 05:57:06;;;;;;;14.63;6.95;;;41.90;32.80;;;;;;5052509;28;20107;-77
2021/08/23 05:59:32;;;;;;;8.85;6.55;;;42.10;32.70;;;;;;5053335;28;20025;-77
2021/08/23 06:01:58;;;;;;;9.25;6.68;;;42.30;32.70;;;;;;5052105;28;20025;-76
2021/08/23 06:04:24;;;;;;;10.05;6.82;;;42.40;32.60;;;;;;5053150;28;20033;-77
2021/08/23 06:06:51;;;;;;;7.63;6.32;;;42.70;32.60;;;;;;5046938;28;20511;-77
2021/08/23 06:09:18;;;;;;;11.68;6.95;;;42.90;32.40;;;;;;5053021;28;20056;-76
2021/08/23 06:11:45;;;;;;;11.68;7.50;;;43.00;32.30;;;;;;5053059;28;20047;-78
2021/08/23 06:14:11;;;;;;;12.40;7.53;;;43.20;32.20;;;;;;5052916;28;20044;-76
2021/08/23 06:16:36;;;;;;;10.88;7.18;;;43.30;32.20;;;;;;5034692;28;20465;-77
2021/08/23 06:19:02;;;;;;;21.17;17.40;;;43.50;32.10;;;;;;5032143;28;20036;-76
2021/08/23 06:21:28;;;;;;;11.38;9.68;;;43.60;32.10;;;;;;5033012;28;20071;-77
2021/08/23 06:23:54;;;;;;;9.25;7.43;;;43.70;31.90;;;;;;5033341;28;20411;-77
2021/08/23 06:26:20;;;;;;;12.77;6.97;;;43.70;31.80;;;;;;5033530;28;20033;-77
2021/08/23 06:28:45;;;;;;;9.32;6.38;;;43.70;31.60;;;;;;5033365;28;20055;-76
2021/08/23 06:31:11;;;;;;;8.82;5.85;;;43.90;31.40;;;;;;5033213;28;20021;-76
2021/08/23 06:33:37;;;;;;;9.57;6.05;;;43.90;31.20;;;;;;5033062;28;20021;-78
2021/08/23 06:36:03;;;;;;;11.93;6.63;;;44.00;30.80;;;;;;5042268;28;20035;-76
2021/08/23 06:38:29;;;;;;;7.88;6.22;;;44.00;30.90;;;;;;5053254;28;20384;-75
2021/08/23 06:40:55;;;;;;;9.20;5.60;;;44.00;30.90;;;;;;5053234;28;20025;-80
2021/08/23 06:43:20;;;;;;;9.18;5.43;;;43.90;30.80;;;;;;5053147;28;20032;-80
2021/08/23 06:45:46;;;;;;;7.90;5.30;;;43.80;30.40;;;;;;5053525;28;20391;-79
2021/08/23 06:48:12;;;;;;;8.57;5.50;;;43.70;30.10;;;;;;5053215;28;20064;-79
2021/08/23 06:50:37;;;;;;;7.45;5.55;;;43.40;30.10;;;;;;5048161;28;20032;-79
2021/08/23 06:53:03;;;;;;;6.75;5.93;;;43.20;30.10;;;;;;5033177;28;20022;-81
2021/08/23 06:55:30;;;;;;;12.57;6.35;;;43.00;30.30;;;;;;5032634;28;20049;-81
2021/08/23 06:57:56;;;;;;;7.85;4.60;;;42.90;30.70;;;;;;5032853;28;20132;-80
2021/08/23 07:00:22;;;;;;;8.00;4.38;;;43.10;30.40;;;;;;5046362;28;20108;-80
2021/08/23 07:02:48;;;;;;;7.80;4.18;;;43.00;30.20;;;;;;5054554;28;20025;-80
2021/08/23 07:05:14;;;;;;;6.97;6.07;;;42.90;30.00;;;;;;5053404;28;20032;-78
2021/08/23 07:07:40;;;;;;;7.05;4.95;;;42.80;30.10;;;;;;5052469;28;20040;-79
2021/08/23 07:10:11;;;;;;;7.38;3.90;;;42.70;30.00;;;;;;5052566;28;20025;-80
2021/08/23 07:12:38;;;;;;;5.20;3.75;;;42.50;30.00;;;;;;5052355;28;20494;-79
2021/08/23 07:15:04;;;;;;;5.07;3.70;;;42.10;29.90;;;;;;5052866;28;20028;-81
2021/08/23 07:17:30;;;;;;;4.20;3.33;;;41.70;30.10;;;;;;5052064;28;20049;-81
2021/08/23 07:19:56;;;;;;;4.70;3.15;;;41.50;30.20;;;;;;5052238;28;20139;-80
2021/08/23 07:22:22;;;;;;;4.05;2.95;;;41.50;30.60;;;;;;5052128;28;20478;-79
2021/08/23 07:24:48;;;;;;;4.68;3.22;;;41.40;30.20;;;;;;5052468;28;20104;-80
2021/08/23 07:27:15;;;;;;;5.20;3.28;;;41.50;30.30;;;;;;5052014;28;20107;-79
2021/08/23 07:29:41;;;;;;;6.85;3.00;;;41.50;30.30;;;;;;5052007;28;20086;-80
2021/08/23 07:32:08;;;;;;;7.72;3.03;;;41.40;30.60;;;;;;5051968;28;20493;-79
2021/08/23 07:34:33;;;;;;;4.72;3.22;;;41.30;30.50;;;;;;5050617;28;20029;-80
2021/08/23 07:36:59;;;;;;;5.38;2.95;;;41.10;30.50;;;;;;5052165;28;20029;-80
2021/08/23 07:39:25;;;;;;;6.00;3.90;;;40.90;30.30;;;;;;5052012;28;20104;-81
2021/08/23 07:41:51;;;;;;;3.95;2.92;;;40.70;30.60;;;;;;5051790;28;20057;-80
2021/08/23 07:44:17;;;;;;;3.42;3.00;;;40.50;30.50;;;;;;5051951;28;20024;-79
2021/08/23 07:46:42;;;;;;;5.25;3.70;;;40.40;30.60;;;;;;5051701;28;20033;-79
2021/08/23 07:49:08;;;;;;;6.53;3.40;;;40.20;30.60;;;;;;5052075;28;20074;-80
2021/08/23 07:51:34;;;;;;;5.25;2.63;;;40.20;30.60;;;;;;5052110;28;20029;-80
2021/08/23 07:54:00;;;;;;;4.00;3.10;;;39.90;30.30;;;;;;5050914;28;20037;-80
2021/08/23 07:56:29;;;;;;;3.00;2.70;;;39.50;30.40;;;;;;5051616;28;20031;-81
2021/08/23 07:58:56;;;;;;;6.43;4.28;;;39.40;30.40;;;;;;5051268;28;20476;-81
2021/08/23 08:01:22;;;;;;;9.32;4.18;;;39.10;30.40;;;;;;5051108;28;20057;-80
2021/08/23 08:03:48;;;;;;;4.50;2.72;;;38.90;30.50;;;;;;5051480;28;20025;-81
2021/08/23 08:06:15;;;;;;;6.97;3.05;;;38.60;30.40;;;;;;5051569;28;20348;-80
2021/08/23 08:08:42;;;;;;;42.70;22.23;;;38.20;30.50;;;;;;5051571;28;20021;-80
2021/08/23 08:11:08;;;;;;;22.83;13.45;;;38.00;30.90;;;;;;5053766;28;20448;-80
2021/08/23 08:13:34;;;;;;;4.18;3.40;;;37.70;31.10;;;;;;5058303;28;20036;-81
2021/08/23 08:16:01;;;;;;;13.30;10.32;;;37.40;31.30;;;;;;5054009;28;20021;-79
2021/08/23 08:18:27;;;;;;;3.20;2.72;;;37.20;31.50;;;;;;5047760;28;20055;-80
2021/08/23 08:20:52;;;;;;;3.00;2.70;;;37.00;31.50;;;;;;5055644;28;20051;-81
2021/08/23 08:23:18;;;;;;;5.15;2.47;;;37.00;31.40;;;;;;5058563;28;20032;-80
2021/08/23 08:25:44;;;;;;;3.28;2.60;;;36.80;31.30;;;;;;5057927;28;20029;-78
2021/08/23 08:28:11;;;;;;;5.95;3.38;;;36.20;31.40;;;;;;5057808;28;20029;-79
2021/08/23 08:30:38;;;;;;;3.97;3.03;;;35.80;32.70;;;;;;5058100;28;20013;-78
2021/08/23 08:33:04;;;;;;;5.30;3.83;;;35.60;32.40;;;;;;5057944;28;20077;-79
2021/08/23 08:35:29;;;;;;;4.60;3.30;;;35.60;32.60;;;;;;5042254;28;20060;-79
2021/08/23 08:37:55;;;;;;;6.68;4.25;;;35.40;32.70;;;;;;5037892;28;20029;-78
2021/08/23 08:40:21;;;;;;;8.18;4.45;;;35.30;32.90;;;;;;5037828;28;20044;-77
2021/08/23 08:42:47;;;;;;;5.93;3.83;;;35.00;32.70;;;;;;5037755;28;20040;-79
2021/08/23 08:45:13;;;;;;;3.13;2.83;;;34.80;33.30;;;;;;5037597;28;20030;-78
2021/08/23 08:47:42;;;;;;;4.88;2.80;;;34.70;33.40;;;;;;5037500;28;20061;-78
2021/08/23 08:50:10;;;;;;;4.15;3.30;;;34.70;33.60;;;;;;5037466;28;20025;-78
2021/08/23 08:52:39;;;;;;;5.70;3.05;;;34.70;33.80;;;;;;5037625;28;20028;-79
2021/08/23 08:55:05;;;;;;;4.80;3.08;;;34.70;33.80;;;;;;5049823;28;20056;-81
2021/08/23 08:57:32;;;;;;;5.55;2.80;;;34.70;33.80;;;;;;5055237;28;20056;-79
2021/08/23 09:00:03;;;;;;;2.97;2.65;;;34.50;33.80;;;;;;5057371;28;20028;-77
2021/08/23 09:02:29;;;;;;;4.60;3.50;;;34.40;34.20;;;;;;5057812;28;20017;-78
2021/08/23 09:04:55;;;;;;;9.65;3.65;;;34.30;34.20;;;;;;5058039;28;20031;-78
2021/08/23 09:07:20;;;;;;;7.65;3.67;;;34.20;34.20;;;;;;5057390;28;20033;-78
2021/08/23 09:09:47;;;;;;;7.38;3.20;;;34.30;34.40;;;;;;5057346;28;20026;-79
2021/08/23 09:12:14;;;;;;;8.68;5.18;;;34.40;34.40;;;;;;5057466;28;20021;-79
2021/08/23 09:14:54;;;;;;;12.70;5.88;;;34.40;34.30;;;;;;5057736;28;20028;-79
2021/08/23 09:17:26;;;;;;;11.48;6.55;;;34.20;33.90;;;;;;5057632;28;20029;-80
2021/08/23 09:20:00;;;;;;;9.23;4.60;;;33.90;33.80;;;;;;5056452;28;20119;-79
2021/08/23 09:22:27;;;;;;;8.45;4.55;;;33.60;34.50;;;;;;5056612;28;20025;-80
2021/08/23 09:24:57;;;;;;;6.80;4.00;;;33.50;35.40;;;;;;5053624;28;20036;-79
2021/08/23 09:27:23;;;;;;;6.15;3.70;;;33.10;34.70;;;;;;5054759;28;20430;-78
2021/08/23 09:29:55;;;;;;;7.68;4.13;;;32.80;35.20;;;;;;5053026;28;20499;-78
2021/08/23 09:32:23;;;;;;;14.10;9.70;;;32.80;36.00;;;;;;5040956;28;20029;-78
2021/08/23 09:34:49;;;;;;;8.98;3.95;;;32.90;36.00;;;;;;5034664;28;20036;-77
2021/08/23 09:37:17;;;;;;;6.60;3.47;;;33.00;36.00;;;;;;5037797;28;20124;-78
2021/08/23 09:39:43;;;;;;;10.65;5.07;;;32.90;36.30;;;;;;5050944;28;20029;-78
2021/08/23 09:42:10;;;;;;;8.30;5.20;;;32.90;37.30;;;;;;5049270;28;20029;-77
2021/08/23 09:44:41;;;;;;;10.25;5.20;;;33.00;37.70;;;;;;5046704;28;20766;-78
2021/08/23 09:47:07;;;;;;;10.37;5.73;;;33.10;37.80;;;;;;5047184;28;20452;-78
2021/08/23 09:49:39;;;;;;;10.27;5.22;;;33.20;37.80;;;;;;5051231;28;20013;-77
2021/08/23 09:52:06;;;;;;;7.97;5.63;;;33.20;37.90;;;;;;5052674;28;20033;-78
2021/08/23 09:54:33;;;;;;;6.70;4.78;;;33.40;38.20;;;;;;5052443;28;20367;-77
2021/08/23 09:56:59;;;;;;;9.65;4.70;;;33.40;38.10;;;;;;5053089;28;20052;-77
2021/08/23 09:59:30;;;;;;;6.18;4.55;;;33.20;38.00;;;;;;5051567;28;20037;-78
2021/08/23 10:01:58;;;;;;;12.27;5.57;;;32.80;38.10;;;;;;5049074;28;20025;-78
2021/08/23 10:04:25;;;;;;;17.35;6.25;;;32.20;38.30;;;;;;5053208;28;20452;-78
2021/08/23 10:06:52;;;;;;;8.77;5.00;;;31.60;38.80;;;;;;5051689;28;20037;-78
2021/08/23 10:09:26;;;;;;;8.63;5.43;;;31.00;39.30;;;;;;5053116;28;20048;-77
2021/08/23 10:11:56;;;;;;;9.38;5.45;;;30.30;39.90;;;;;;5052891;28;20022;-79
2021/08/23 10:14:22;;;;;;;13.40;6.35;;;29.80;40.60;;;;;;5052776;28;20017;-79
2021/08/23 10:16:48;;;;;;;9.50;5.03;;;29.60;40.80;;;;;;5052888;28;20032;-78
2021/08/23 10:19:14;;;;;;;11.13;5.95;;;29.30;41.30;;;;;;5053078;28;20052;-79
2021/08/23 10:21:46;;;;;;;8.65;5.00;;;29.10;41.20;;;;;;5052712;28;20025;-79
2021/08/23 10:24:20;;;;;;;9.73;4.25;;;28.60;41.30;;;;;;5052935;28;20032;-78
2021/08/23 10:26:47;;;;;;;7.53;4.22;;;28.20;41.80;;;;;;5052773;28;20032;-79
2021/08/23 10:29:15;;;;;;;7.97;3.83;;;27.80;42.30;;;;;;5050984;28;20018;-78
2021/08/23 10:31:43;;;;;;;6.50;3.97;;;27.50;42.90;;;;;;5052600;28;20111;-78
2021/08/23 10:34:28;;;;;;;8.95;5.85;;;27.20;43.30;;;;;;5052324;28;20074;-79
2021/08/23 10:36:54;;;;;;;10.35;4.28;;;27.20;43.90;;;;;;5052293;28;20040;-79
2021/08/23 10:39:25;;;;;;;10.65;5.63;;;27.40;43.80;;;;;;5052244;28;20022;-79
2021/08/23 10:41:53;;;;;;;11.87;5.47;;;27.50;43.40;;;;;;5052077;28;20421;-78
2021/08/23 10:44:28;;;;;;;18.80;5.20;;;27.60;43.00;;;;;;5052423;28;20401;-78
2021/08/23 10:47:07;;;;;;;11.63;6.13;;;27.50;43.10;;;;;;5052373;28;20025;-78
2021/08/23 10:49:45;;;;;;;13.13;6.22;;;27.50;42.90;;;;;;5052322;28;20032;-79
2021/08/23 10:52:13;;;;;;;11.57;5.60;;;27.40;42.70;;;;;;5052536;28;20518;-78
2021/08/23 10:54:42;;;;;;;8.93;4.95;;;27.30;42.80;;;;;;5050818;28;20025;-79
2021/08/23 10:57:12;;;;;;;12.18;5.65;;;27.20;42.80;;;;;;5052367;28;20182;-79
2021/08/23 10:59:47;;;;;;;8.90;4.30;;;27.10;42.90;;;;;;5051497;28;20036;-78
2021/08/23 11:02:31;;;;;;;9.80;3.97;;;27.00;43.50;;;;;;5050699;28;20044;-78
2021/08/23 11:05:19;;;;;;;10.63;4.75;;;27.00;43.60;;;;;;5051797;28;20058;-79
2021/08/23 11:07:47;;;;;;;7.32;4.43;;;27.00;43.50;;;;;;5051553;28;20067;-79
2021/08/23 11:10:15;;;;;;;8.30;4.45;;;26.80;43.70;;;;;;5051687;28;20021;-79
2021/08/23 11:12:41;;;;;;;10.35;5.15;;;26.70;43.90;;;;;;5051427;28;20025;-79
2021/08/23 11:15:25;;;;;;;9.70;4.53;;;26.60;44.00;;;;;;5050508;28;20149;-78
2021/08/23 11:17:51;;;;;;;5.45;3.58;;;26.60;44.20;;;;;;5051859;28;20104;-79
2021/08/23 11:20:44;;;;;;;6.25;3.28;;;26.50;44.00;;;;;;5051790;28;20079;-79
2021/08/23 11:23:12;;;;;;;8.93;3.30;;;26.50;44.30;;;;;;5051307;28;20107;-77
2021/08/23 11:25:45;;;;;;;7.20;3.30;;;26.40;44.20;;;;;;5051831;28;20013;-78
2021/08/23 11:28:13;;;;;;;7.68;3.40;;;26.40;43.90;;;;;;5049927;28;20212;-78
2021/08/23 11:30:41;;;;;;;6.10;3.42;;;26.50;43.80;;;;;;5051619;28;20025;-78
2021/08/23 11:33:09;;;;;;;12.65;6.55;;;26.50;43.80;;;;;;5051531;28;20533;-79
2021/08/23 11:35:36;;;;;;;11.95;6.40;;;26.60;43.00;;;;;;5051861;28;20067;-79
2021/08/23 11:38:05;;;;;;;13.05;5.50;;;26.70;42.70;;;;;;5051072;28;20047;-79
2021/08/23 11:40:33;;;;;;;16.83;7.63;;;26.70;42.80;;;;;;5051418;28;20087;-79
2021/08/23 11:43:02;;;;;;;7.55;5.47;;;26.70;42.70;;;;;;5051203;28;20100;-78
2021/08/23 11:45:43;;;;;;;8.85;6.20;;;26.80;42.90;;;;;;5050986;28;20051;-78
2021/08/23 11:48:09;;;;;;;13.45;7.60;;;26.80;43.40;;;;;;5050000;28;20703;-78
2021/08/23 11:50:36;;;;;;;6.45;4.40;;;26.80;43.30;;;;;;5051321;28;20392;-78
2021/08/23 11:53:07;;;;;;;8.60;4.47;;;26.80;43.30;;;;;;5051543;28;20032;-78
2021/08/23 11:55:35;;;;;;;5.20;3.63;;;26.90;43.60;;;;;;5051630;28;20051;-79
2021/08/23 11:58:06;;;;;;;7.07;3.92;;;27.10;43.30;;;;;;5050835;28;20053;-79
2021/08/23 12:00:34;;;;;;;6.95;3.58;;;27.10;43.30;;;;;;5051070;28;20025;-79
2021/08/23 12:03:21;;;;;;;6.50;4.20;;;27.20;43.20;;;;;;5049906;28;20040;-77
2021/08/23 12:05:48;;;;;;;7.57;4.55;;;27.20;43.10;;;;;;5050841;28;20033;-79
2021/08/23 12:08:41;;;;;;;7.93;4.38;;;27.20;43.20;;;;;;5049830;28;20523;-79
2021/08/23 12:11:24;;;;;;;5.53;4.07;;;27.20;43.00;;;;;;5049420;28;20037;-78
2021/08/23 12:13:51;;;;;;;6.07;3.85;;;27.10;42.90;;;;;;5050786;28;20029;-78
2021/08/23 12:16:19;;;;;;;6.03;3.83;;;26.90;42.70;;;;;;5050983;28;20021;-79
2021/08/23 12:18:50;;;;;;;9.10;3.60;;;26.80;42.90;;;;;;5050694;28;20029;-78
2021/08/23 12:21:17;;;;;;;5.07;3.60;;;26.80;43.30;;;;;;5050726;28;20094;-79
2021/08/23 12:24:04;;;;;;;4.28;3.35;;;26.70;43.20;;;;;;5050624;28;20515;-79
2021/08/23 12:26:30;;;;;;;6.07;3.78;;;26.70;43.40;;;;;;5050577;28;20519;-78
2021/08/23 12:28:58;;;;;;;7.38;3.63;;;26.80;43.50;;;;;;5050471;28;20112;-79
2021/08/23 12:31:24;;;;;;;7.18;3.70;;;26.80;43.10;;;;;;5050481;28;20511;-78
2021/08/23 12:33:50;;;;;;;7.20;3.92;;;26.90;43.10;;;;;;5050409;28;20066;-77
2021/08/23 12:36:16;;;;;;;8.07;4.18;;;27.10;43.20;;;;;;5050569;28;20037;-77
2021/08/23 12:38:44;;;;;;;7.53;3.53;;;27.20;43.10;;;;;;5047032;28;20112;-79